Time;durP1;ratioP1;P1;durP2;ratioP2;P2;SDS_P1;SDS_P2;PMS_P1;PMS_P2;Temp;Humidity;BMP_temperature;BMP_pressure;BME280_temperature;BME280_humidity;BME280_pressure;Samples;Min_cycle;Max_cycle;Signal;HPM_P1;HPM_P2
2022/10/28 00:01:07;;;;;;;45.08;29.92;;;;;;;;;;10043150;28;20504;-74
2022/10/28 00:06:02;;;;;;;42.60;27.60;;;;;;;;;;10041696;28;20049;-73
2022/10/28 00:11:03;;;;;;;45.97;28.50;;;;;;;;;;10064121;28;20037;-74
2022/10/28 00:16:10;;;;;;;51.72;31.02;;;;;;;;;;10042020;28;20084;-74
2022/10/28 00:21:11;;;;;;;44.42;29.40;;;;;;;;;;9969232;28;1950735;-74
2022/10/28 00:26:13;;;;;;;55.55;31.70;;;;;;;;;;10066398;28;20140;-74
2022/10/28 00:31:08;;;;;;;46.10;28.55;;;;;;;;;;10052377;28;20136;-73
2022/10/28 00:36:20;;;;;;;45.00;27.83;;;;;;;;;;10040207;28;20104;-72
2022/10/28 00:41:23;;;;;;;50.60;28.65;;;;;;;;;;10037766;28;20053;-72
2022/10/28 00:46:23;;;;;;;44.47;29.33;;;;;;;;;;10062877;28;20400;-72
2022/10/28 00:51:17;;;;;;;46.65;27.80;;;;;;;;;;10062395;28;20412;-72
2022/10/28 00:56:11;;;;;;;47.45;28.45;;;;;;;;;;10037490;28;20117;-72
2022/10/28 01:01:05;;;;;;;46.78;28.45;;;;;;;;;;10040396;28;20107;-72
2022/10/28 01:06:00;;;;;;;48.00;32.28;;;;;;;;;;10030728;28;20148;-72
2022/10/28 01:11:14;;;;;;;49.10;28.50;;;;;;;;;;10050594;28;20038;-72
2022/10/28 01:16:25;;;;;;;42.83;30.50;;;;;;;;;;10053551;28;20563;-72
2022/10/28 01:21:25;;;;;;;49.23;30.07;;;;;;;;;;10053440;28;20140;-72
2022/10/28 01:26:43;;;;;;;46.80;30.65;;;;;;;;;;10051431;28;20056;-72
2022/10/28 01:32:10;;;;;;;48.88;29.48;;;;;;;;;;10049837;28;20080;-72
2022/10/28 01:37:28;;;;;;;55.42;32.55;;;;;;;;;;10051395;28;20050;-72
2022/10/28 01:42:29;;;;;;;43.10;27.60;;;;;;;;;;10052084;28;20061;-72
2022/10/28 01:47:26;;;;;;;43.50;29.73;;;;;;;;;;10041322;28;20127;-72
2022/10/28 01:52:23;;;;;;;46.25;32.00;;;;;;;;;;10041108;28;20150;-72
2022/10/28 01:57:17;;;;;;;45.85;30.00;;;;;;;;;;10048814;28;20140;-71
2022/10/28 02:02:11;;;;;;;49.80;31.33;;;;;;;;;;10047838;28;20080;-71
2022/10/28 02:07:06;;;;;;;47.67;29.08;;;;;;;;;;10035959;28;20519;-71
2022/10/28 02:12:20;;;;;;;54.47;31.10;;;;;;;;;;10041548;28;20058;-73
2022/10/28 02:17:27;;;;;;;45.65;28.70;;;;;;;;;;10044307;28;20058;-72
2022/10/28 02:22:42;;;;;;;40.28;27.70;;;;;;;;;;10069740;28;20140;-72
2022/10/28 02:28:33;;;;;;;42.47;28.25;;;;;;;;;;10042401;28;20053;-71
2022/10/28 02:33:47;;;;;;;47.88;30.98;;;;;;;;;;10056261;28;20050;-71
2022/10/28 02:38:48;;;;;;;42.35;29.77;;;;;;;;;;10050419;28;20048;-71
2022/10/28 02:43:44;;;;;;;54.35;31.15;;;;;;;;;;10044978;28;20087;-70
2022/10/28 02:48:42;;;;;;;40.15;29.35;;;;;;;;;;10051999;28;20045;-71
2022/10/28 02:53:45;;;;;;;51.80;28.63;;;;;;;;;;10056668;28;20050;-71
2022/10/28 02:58:39;;;;;;;46.90;29.15;;;;;;;;;;10054330;28;20081;-71
2022/10/28 03:03:32;;;;;;;38.72;26.92;;;;;;;;;;10043171;28;20045;-72
2022/10/28 03:08:26;;;;;;;46.15;26.30;;;;;;;;;;10059678;28;20068;-73
2022/10/28 03:13:19;;;;;;;36.35;25.15;;;;;;;;;;10059315;28;20136;-72
2022/10/28 03:18:12;;;;;;;39.47;26.38;;;;;;;;;;10068532;28;20072;-72
2022/10/28 03:23:06;;;;;;;37.17;24.35;;;;;;;;;;10068426;28;20100;-72
2022/10/28 03:27:59;;;;;;;41.15;24.08;;;;;;;;;;10054219;28;20053;-76
2022/10/28 03:32:53;;;;;;;44.92;25.83;;;;;;;;;;10055014;28;20053;-73
2022/10/28 03:37:47;;;;;;;43.10;26.08;;;;;;;;;;10064820;28;20124;-72
2022/10/28 03:42:41;;;;;;;44.00;24.00;;;;;;;;;;10064811;28;20500;-73
2022/10/28 03:47:34;;;;;;;38.22;25.40;;;;;;;;;;10056114;28;20128;-72
2022/10/28 03:52:28;;;;;;;44.05;24.58;;;;;;;;;;10067084;28;20144;-72
2022/10/28 03:57:22;;;;;;;46.45;24.15;;;;;;;;;;10018069;28;20057;-70
2022/10/28 04:02:16;;;;;;;46.75;22.25;;;;;;;;;;10022086;28;20060;-70
2022/10/28 04:07:10;;;;;;;35.28;24.13;;;;;;;;;;10024006;28;20498;-70
2022/10/28 04:12:04;;;;;;;42.22;24.83;;;;;;;;;;10031711;28;20058;-69
2022/10/28 04:16:58;;;;;;;45.70;24.73;;;;;;;;;;10022607;28;20084;-69
2022/10/28 04:21:52;;;;;;;44.00;25.85;;;;;;;;;;10032631;28;20116;-69
2022/10/28 04:26:46;;;;;;;41.75;25.33;;;;;;;;;;10023398;28;20100;-70
2022/10/28 04:31:40;;;;;;;37.72;24.73;;;;;;;;;;10026641;28;20060;-70
2022/10/28 04:36:33;;;;;;;47.63;27.40;;;;;;;;;;10030950;28;20116;-70
2022/10/28 04:41:28;;;;;;;38.05;24.67;;;;;;;;;;10019633;28;20555;-70
2022/10/28 04:46:23;;;;;;;40.00;26.20;;;;;;;;;;10029145;28;20049;-70
2022/10/28 04:51:16;;;;;;;44.38;27.55;;;;;;;;;;10055429;28;20390;-70
2022/10/28 04:56:10;;;;;;;50.35;27.15;;;;;;;;;;10063305;28;20057;-70
2022/10/28 05:01:07;;;;;;;47.22;28.58;;;;;;;;;;10049702;28;20061;-70
2022/10/28 05:06:01;;;;;;;47.42;25.67;;;;;;;;;;10043379;28;20057;-70
2022/10/28 05:10:55;;;;;;;38.33;24.25;;;;;;;;;;10054743;28;20045;-70
2022/10/28 05:15:49;;;;;;;42.90;27.15;;;;;;;;;;10060763;28;20061;-70
2022/10/28 05:20:43;;;;;;;39.58;24.20;;;;;;;;;;10049123;28;20054;-70
2022/10/28 05:25:37;;;;;;;55.70;24.58;;;;;;;;;;10055519;28;20129;-72
2022/10/28 05:30:30;;;;;;;40.97;24.48;;;;;;;;;;10063384;28;20530;-72
2022/10/28 05:35:24;;;;;;;38.75;24.52;;;;;;;;;;10054042;28;20053;-72
2022/10/28 05:40:17;;;;;;;36.08;25.13;;;;;;;;;;10032345;28;20046;-72
2022/10/28 05:45:11;;;;;;;50.95;26.25;;;;;;;;;;10033661;28;20058;-70
2022/10/28 05:50:07;;;;;;;55.20;28.33;;;;;;;;;;10035302;28;20122;-69
2022/10/28 05:55:01;;;;;;;40.65;25.85;;;;;;;;;;10065167;28;20435;-70
2022/10/28 05:59:55;;;;;;;40.53;24.33;;;;;;;;;;10051977;28;20120;-70
2022/10/28 06:04:48;;;;;;;43.90;24.52;;;;;;;;;;10031390;28;20060;-70
2022/10/28 06:09:41;;;;;;;45.00;25.52;;;;;;;;;;10054546;28;20084;-71
2022/10/28 06:14:34;;;;;;;35.85;23.92;;;;;;;;;;10062799;28;20471;-70
2022/10/28 06:19:28;;;;;;;34.28;24.05;;;;;;;;;;10066759;28;20691;-70
2022/10/28 06:24:22;;;;;;;42.85;23.65;;;;;;;;;;10042311;28;20088;-71
2022/10/28 06:29:16;;;;;;;47.00;23.08;;;;;;;;;;10056753;28;20060;-71
2022/10/28 06:34:10;;;;;;;36.90;25.05;;;;;;;;;;10062495;28;20065;-71
2022/10/28 06:39:03;;;;;;;39.00;22.63;;;;;;;;;;10048994;28;20064;-69
2022/10/28 06:43:58;;;;;;;37.85;24.55;;;;;;;;;;10044390;28;20060;-68
2022/10/28 06:48:53;;;;;;;53.05;25.60;;;;;;;;;;10051677;28;20078;-69
2022/10/28 06:53:51;;;;;;;40.42;24.15;;;;;;;;;;10053244;28;20053;-69
2022/10/28 06:58:52;;;;;;;41.22;26.15;;;;;;;;;;10057808;28;20061;-69
2022/10/28 07:03:47;;;;;;;41.83;25.00;;;;;;;;;;10067036;28;20109;-70
2022/10/28 07:08:40;;;;;;;46.40;25.58;;;;;;;;;;10034587;28;20054;-69
2022/10/28 07:13:33;;;;;;;36.72;23.48;;;;;;;;;;10029874;28;20049;-69
2022/10/28 07:18:28;;;;;;;43.20;23.52;;;;;;;;;;10035405;28;20528;-68
2022/10/28 07:23:22;;;;;;;47.08;21.77;;;;;;;;;;10047839;28;20089;-68
2022/10/28 07:28:16;;;;;;;36.38;21.27;;;;;;;;;;10051734;28;20059;-68
2022/10/28 07:33:10;;;;;;;48.75;25.25;;;;;;;;;;10056706;28;20112;-69
2022/10/28 07:38:04;;;;;;;42.90;21.02;;;;;;;;;;10057461;28;20049;-69
2022/10/28 07:42:58;;;;;;;43.78;21.85;;;;;;;;;;10042014;28;20052;-69
2022/10/28 07:47:51;;;;;;;43.25;21.63;;;;;;;;;;10063493;28;20057;-69
2022/10/28 07:52:45;;;;;;;35.40;21.60;;;;;;;;;;10040978;28;20120;-68
2022/10/28 07:57:37;;;;;;;62.10;23.30;;;;;;;;;;10052976;28;20038;-68
2022/10/28 08:02:31;;;;;;;38.78;23.52;;;;;;;;;;10027533;28;20081;-69
2022/10/28 08:07:24;;;;;;;55.50;22.30;;;;;;;;;;10010758;28;20096;-68
2022/10/28 08:12:17;;;;;;;38.53;23.15;;;;;;;;;;10019727;28;20124;-68
2022/10/28 08:17:10;;;;;;;38.15;21.63;;;;;;;;;;10017640;28;20052;-71
2022/10/28 08:22:03;;;;;;;38.63;23.48;;;;;;;;;;10022900;28;20522;-68
2022/10/28 08:26:57;;;;;;;43.47;26.35;;;;;;;;;;10009061;28;20116;-68
2022/10/28 08:31:51;;;;;;;45.35;24.30;;;;;;;;;;10033397;28;20053;-66
2022/10/28 08:36:45;;;;;;;46.22;29.05;;;;;;;;;;10022906;28;20504;-70
2022/10/28 08:41:51;;;;;;;46.78;29.17;;;;;;;;;;10021558;28;20077;-69
2022/10/28 08:46:56;;;;;;;38.92;25.15;;;;;;;;;;10025771;28;20050;-69
2022/10/28 08:52:04;;;;;;;31.55;21.27;;;;;;;;;;10033716;28;20141;-68
2022/10/28 08:56:59;;;;;;;34.72;22.45;;;;;;;;;;10020042;28;20053;-69
2022/10/28 09:02:04;;;;;;;34.03;20.60;;;;;;;;;;10027578;28;20104;-69
2022/10/28 09:07:05;;;;;;;32.22;20.33;;;;;;;;;;10050946;28;20046;-68
2022/10/28 09:12:16;;;;;;;32.95;20.83;;;;;;;;;;10028463;28;20544;-69
2022/10/28 09:17:20;;;;;;;38.20;21.85;;;;;;;;;;10030824;28;20057;-69
2022/10/28 09:22:23;;;;;;;34.72;19.73;;;;;;;;;;10027351;28;20748;-68
2022/10/28 09:27:31;;;;;;;31.27;20.83;;;;;;;;;;10024702;28;20058;-68
2022/10/28 09:32:27;;;;;;;;;;;;;;;;;;10033151;28;20108;-69
2022/10/28 09:37:25;;;;;;;34.83;21.60;;;;;;;;;;10058410;28;19925;-69
2022/10/28 09:42:40;;;;;;;47.17;24.60;;;;;;;;;;10049882;28;20456;-69
2022/10/28 09:47:40;;;;;;;35.85;25.45;;;;;;;;;;10029856;28;20476;-69
2022/10/28 09:52:40;;;;;;;48.67;26.02;;;;;;;;;;10023278;28;20054;-69
2022/10/28 09:57:33;;;;;;;43.88;24.83;;;;;;;;;;10020839;28;20050;-69
2022/10/28 10:02:27;;;;;;;68.28;30.25;;;;;;;;;;10026849;28;20060;-69
2022/10/28 10:08:01;;;;;;;51.75;25.27;;;;;;;;;;10028666;28;20045;-68
2022/10/28 10:13:14;;;;;;;48.70;27.60;;;;;;;;;;10033041;28;20421;-70
2022/10/28 10:18:15;;;;;;;47.65;27.20;;;;;;;;;;10047390;28;20058;-70
2022/10/28 10:23:50;;;;;;;46.80;26.17;;;;;;;;;;10059113;28;20116;-69
2022/10/28 10:28:47;;;;;;;42.33;25.83;;;;;;;;;;10049871;28;20046;-70
2022/10/28 10:33:40;;;;;;;45.40;25.42;;;;;;;;;;10063820;28;20381;-70
2022/10/28 10:38:34;;;;;;;42.95;26.58;;;;;;;;;;10055140;28;20053;-69
2022/10/28 10:43:32;;;;;;;43.30;26.20;;;;;;;;;;10037653;28;20548;-69
2022/10/28 10:48:26;;;;;;;42.50;26.50;;;;;;;;;;10038344;28;20054;-69
2022/10/28 10:53:30;;;;;;;58.10;27.85;;;;;;;;;;10041783;28;20505;-69
2022/10/28 10:58:32;;;;;;;56.67;29.60;;;;;;;;;;10033179;28;20081;-69
2022/10/28 11:03:33;;;;;;;54.38;27.52;;;;;;;;;;10039205;28;20093;-69
2022/10/28 11:08:51;;;;;;;47.20;26.85;;;;;;;;;;10058913;28;20440;-69
2022/10/28 11:13:46;;;;;;;43.67;26.60;;;;;;;;;;10043497;28;20046;-69
2022/10/28 11:18:42;;;;;;;54.05;29.02;;;;;;;;;;10054133;28;20066;-70
2022/10/28 11:23:57;;;;;;;37.95;26.42;;;;;;;;;;10040652;28;20156;-70
2022/10/28 11:29:10;;;;;;;40.67;23.40;;;;;;;;;;10050999;28;20052;-70
2022/10/28 11:34:06;;;;;;;44.55;28.23;;;;;;;;;;10039446;28;20053;-68
2022/10/28 11:39:19;;;;;;;46.83;28.50;;;;;;;;;;10060703;28;20065;-69
2022/10/28 11:44:32;;;;;;;44.50;26.48;;;;;;;;;;10059027;28;20448;-68
2022/10/28 11:49:50;;;;;;;45.90;26.30;;;;;;;;;;10039232;28;20076;-68
2022/10/28 11:54:52;;;;;;;39.38;26.20;;;;;;;;;;10035474;28;20078;-69
2022/10/28 12:00:13;;;;;;;45.35;25.35;;;;;;;;;;10036026;28;20493;-70
2022/10/28 12:05:34;;;;;;;39.42;23.13;;;;;;;;;;10031041;28;20449;-69
2022/10/28 12:10:30;;;;;;;43.72;26.27;;;;;;;;;;10020351;28;20093;-69
2022/10/28 12:16:05;;;;;;;40.28;23.23;;;;;;;;;;10022284;28;20438;-69
2022/10/28 12:21:17;;;;;;;38.42;25.42;;;;;;;;;;10012193;28;20061;-69
2022/10/28 12:26:14;;;;;;;35.88;24.70;;;;;;;;;;10029085;28;20099;-68
2022/10/28 12:31:24;;;;;;;36.73;24.27;;;;;;;;;;10030416;28;20054;-70
2022/10/28 12:36:27;;;;;;;45.63;23.92;;;;;;;;;;10024215;28;20077;-71
2022/10/28 12:41:39;;;;;;;42.78;26.02;;;;;;;;;;10034220;28;20061;-69
2022/10/28 12:47:00;;;;;;;42.67;24.42;;;;;;;;;;10028553;28;20050;-70
2022/10/28 12:51:57;;;;;;;39.50;25.85;;;;;;;;;;10023080;28;20590;-71
2022/10/28 12:56:55;;;;;;;40.53;22.77;;;;;;;;;;10017231;28;20054;-68
2022/10/28 13:01:50;;;;;;;37.15;25.33;;;;;;;;;;10020060;28;20217;-68
2022/10/28 13:07:09;;;;;;;45.63;22.92;;;;;;;;;;10012921;28;20062;-68
2022/10/28 13:12:11;;;;;;;38.47;21.85;;;;;;;;;;10024920;28;20535;-68
2022/10/28 13:17:30;;;;;;;32.70;22.08;;;;;;;;;;10023200;28;20054;-68
2022/10/28 13:22:54;;;;;;;34.53;20.35;;;;;;;;;;10021644;28;20054;-68
2022/10/28 13:27:54;;;;;;;45.42;23.67;;;;;;;;;;10028108;28;20050;-68
2022/10/28 13:33:08;;;;;;;42.53;22.38;;;;;;;;;;10044221;28;20049;-68
2022/10/28 13:38:01;;;;;;;36.55;22.52;;;;;;;;;;10040466;28;20044;-69
2022/10/28 13:42:55;;;;;;;33.95;21.95;;;;;;;;;;10034756;28;20113;-67
2022/10/28 13:47:50;;;;;;;36.03;22.50;;;;;;;;;;10070453;28;20061;-68
2022/10/28 13:52:45;;;;;;;36.38;22.88;;;;;;;;;;10016785;28;20521;-68
2022/10/28 13:57:42;;;;;;;47.80;23.73;;;;;;;;;;10017933;28;20049;-68
2022/10/28 14:02:45;;;;;;;34.35;22.02;;;;;;;;;;10012926;28;20093;-68
2022/10/28 14:07:56;;;;;;;35.92;21.70;;;;;;;;;;10016604;28;20137;-68
2022/10/28 14:13:02;;;;;;;39.42;23.92;;;;;;;;;;10043245;28;20050;-68
2022/10/28 14:18:13;;;;;;;37.13;22.85;;;;;;;;;;10037176;28;20141;-68
2022/10/28 14:23:25;;;;;;;46.15;27.80;;;;;;;;;;10028157;28;20053;-69
2022/10/28 14:28:30;;;;;;;40.67;24.17;;;;;;;;;;10030861;28;20069;-69
2022/10/28 14:33:24;;;;;;;42.80;23.30;;;;;;;;;;10030336;28;20420;-68
2022/10/28 14:38:32;;;;;;;35.45;21.58;;;;;;;;;;10035039;28;20045;-69
2022/10/28 14:43:40;;;;;;;40.13;23.20;;;;;;;;;;10024987;28;20084;-68
2022/10/28 14:48:54;;;;;;;41.42;23.48;;;;;;;;;;10023397;28;20062;-68
2022/10/28 14:53:51;;;;;;;41.88;22.42;;;;;;;;;;10024836;28;20041;-70
2022/10/28 14:58:45;;;;;;;37.00;21.42;;;;;;;;;;10032472;28;20521;-69
2022/10/28 15:03:39;;;;;;;41.10;21.88;;;;;;;;;;10030665;28;20056;-68
2022/10/28 15:08:33;;;;;;;34.03;21.63;;;;;;;;;;10026476;28;20390;-69
2022/10/28 15:13:26;;;;;;;38.67;24.25;;;;;;;;;;10051722;28;20148;-68
2022/10/28 15:18:24;;;;;;;43.78;24.95;;;;;;;;;;10050428;28;20455;-68
2022/10/28 15:23:22;;;;;;;44.70;26.52;;;;;;;;;;10052015;28;20054;-68
2022/10/28 15:28:16;;;;;;;46.25;28.23;;;;;;;;;;10037382;28;20042;-68
2022/10/28 15:33:29;;;;;;;48.30;28.73;;;;;;;;;;10056488;28;20076;-68
2022/10/28 15:38:31;;;;;;;52.20;27.90;;;;;;;;;;10053258;28;20055;-69
2022/10/28 15:43:29;;;;;;;41.22;25.90;;;;;;;;;;10030428;28;20049;-68
2022/10/28 15:48:25;;;;;;;52.92;26.65;;;;;;;;;;10030918;28;20057;-69
2022/10/28 15:53:45;;;;;;;46.30;27.35;;;;;;;;;;10030291;28;20096;-69
2022/10/28 15:58:46;;;;;;;46.70;27.75;;;;;;;;;;10023985;28;20068;-69
2022/10/28 16:03:39;;;;;;;44.13;29.70;;;;;;;;;;10031740;28;20103;-68
2022/10/28 16:08:33;;;;;;;61.13;29.33;;;;;;;;;;10031882;28;20136;-68
2022/10/28 16:13:36;;;;;;;55.33;30.50;;;;;;;;;;10027744;28;20132;-68
2022/10/28 16:18:31;;;;;;;59.45;32.58;;;;;;;;;;10030528;28;20061;-68
2022/10/28 16:23:31;;;;;;;61.25;32.85;;;;;;;;;;10021193;28;20059;-68
2022/10/28 16:28:26;;;;;;;54.67;34.55;;;;;;;;;;10025396;28;20051;-68
2022/10/28 16:33:32;;;;;;;47.72;33.10;;;;;;;;;;10017785;28;21403;-67
2022/10/28 16:38:25;;;;;;;56.00;32.25;;;;;;;;;;10012488;28;20069;-67
2022/10/28 16:43:36;;;;;;;47.70;31.48;;;;;;;;;;10021652;28;20046;-67
2022/10/28 16:48:31;;;;;;;57.17;33.53;;;;;;;;;;10026889;28;20057;-67
2022/10/28 16:53:25;;;;;;;49.90;28.90;;;;;;;;;;10026391;28;20042;-67
2022/10/28 16:58:19;;;;;;;53.00;29.40;;;;;;;;;;10026118;28;20057;-67
2022/10/28 17:03:19;;;;;;;49.80;29.65;;;;;;;;;;10025398;28;20049;-67
2022/10/28 17:08:13;;;;;;;54.88;29.70;;;;;;;;;;10025101;28;20108;-68
2022/10/28 17:13:13;;;;;;;49.97;30.33;;;;;;;;;;10022226;28;20137;-68
2022/10/28 17:18:20;;;;;;;53.73;28.33;;;;;;;;;;10018309;28;20058;-68
2022/10/28 17:23:23;;;;;;;60.00;28.42;;;;;;;;;;10017321;28;20496;-68
2022/10/28 17:28:26;;;;;;;55.50;27.58;;;;;;;;;;10007580;28;20053;-67
2022/10/28 17:33:26;;;;;;;53.22;27.42;;;;;;;;;;10018660;28;20046;-68
2022/10/28 17:38:26;;;;;;;47.90;27.48;;;;;;;;;;10019228;28;20077;-68
2022/10/28 17:43:27;;;;;;;56.00;27.95;;;;;;;;;;10019327;28;20141;-67
2022/10/28 17:48:30;;;;;;;48.17;27.02;;;;;;;;;;10013020;28;20137;-66
2022/10/28 17:53:32;;;;;;;47.05;30.27;;;;;;;;;;10019056;28;20053;-67
2022/10/28 17:58:36;;;;;;;52.38;31.00;;;;;;;;;;10017515;28;20069;-67
2022/10/28 18:03:40;;;;;;;52.65;32.40;;;;;;;;;;10013932;28;20068;-67
2022/10/28 18:08:42;;;;;;;54.45;32.22;;;;;;;;;;10006792;28;20460;-67
2022/10/28 18:13:46;;;;;;;61.53;32.67;;;;;;;;;;10018805;28;20516;-67
2022/10/28 18:18:47;;;;;;;61.88;31.73;;;;;;;;;;10016693;28;20081;-68
2022/10/28 18:23:53;;;;;;;57.97;31.23;;;;;;;;;;10015229;28;20444;-67
2022/10/28 18:28:53;;;;;;;52.42;30.85;;;;;;;;;;10018215;28;20050;-67
2022/10/28 18:33:51;;;;;;;56.63;31.75;;;;;;;;;;10017234;28;20060;-67
2022/10/28 18:38:45;;;;;;;51.97;31.73;;;;;;;;;;10023048;28;20149;-68
2022/10/28 18:43:42;;;;;;;51.65;29.38;;;;;;;;;;10021046;28;20505;-68
2022/10/28 18:48:38;;;;;;;45.33;30.10;;;;;;;;;;10037654;28;20112;-66
2022/10/28 18:53:40;;;;;;;44.42;29.83;;;;;;;;;;10021846;28;20500;-72
2022/10/28 18:58:34;;;;;;;49.85;30.33;;;;;;;;;;10019516;28;20524;-66
2022/10/28 19:03:28;;;;;;;52.28;30.58;;;;;;;;;;10004451;28;20082;-67
2022/10/28 19:08:23;;;;;;;56.40;31.98;;;;;;;;;;10002954;28;20046;-68
2022/10/28 19:13:17;;;;;;;57.30;31.27;;;;;;;;;;10001350;28;20129;-67
2022/10/28 19:18:10;;;;;;;49.90;30.90;;;;;;;;;;10003754;28;20136;-66
2022/10/28 19:23:09;;;;;;;55.20;30.73;;;;;;;;;;10002778;28;20750;-67
2022/10/28 19:28:06;;;;;;;50.08;29.15;;;;;;;;;;10004549;28;20105;-66
2022/10/28 19:33:03;;;;;;;45.03;28.73;;;;;;;;;;10009578;28;20097;-66
2022/10/28 19:37:58;;;;;;;52.30;29.80;;;;;;;;;;10007084;28;20530;-68
2022/10/28 19:42:52;;;;;;;48.17;30.98;;;;;;;;;;10017765;28;20084;-67
2022/10/28 19:47:47;;;;;;;48.97;30.75;;;;;;;;;;10019764;28;20065;-67
2022/10/28 19:52:42;;;;;;;49.90;30.10;;;;;;;;;;10016113;28;20440;-67
2022/10/28 19:57:35;;;;;;;45.58;30.35;;;;;;;;;;10022709;28;20050;-66
2022/10/28 20:02:30;;;;;;;48.55;29.63;;;;;;;;;;10016007;28;20053;-67
2022/10/28 20:07:24;;;;;;;61.20;31.98;;;;;;;;;;10020024;28;20099;-67
2022/10/28 20:12:18;;;;;;;42.92;26.83;;;;;;;;;;10016411;28;20077;-69
2022/10/28 20:17:14;;;;;;;54.22;30.77;;;;;;;;;;10020203;28;20073;-67
2022/10/28 20:22:08;;;;;;;47.83;27.73;;;;;;;;;;10022971;28;20070;-67
2022/10/28 20:27:02;;;;;;;64.75;33.13;;;;;;;;;;10017541;28;20074;-67
2022/10/28 20:31:58;;;;;;;51.20;29.73;;;;;;;;;;10017075;28;20047;-66
2022/10/28 20:36:52;;;;;;;44.47;31.25;;;;;;;;;;10015125;28;20042;-67
2022/10/28 20:41:46;;;;;;;53.80;33.00;;;;;;;;;;10012513;28;20050;-67
2022/10/28 20:46:40;;;;;;;45.38;30.00;;;;;;;;;;10016406;28;20100;-67
2022/10/28 20:51:33;;;;;;;52.30;31.52;;;;;;;;;;10016561;28;20045;-67
2022/10/28 20:56:33;;;;;;;48.10;31.80;;;;;;;;;;10019923;28;20057;-67
2022/10/28 21:01:45;;;;;;;52.50;30.00;;;;;;;;;;10019827;28;20104;-67
2022/10/28 21:06:39;;;;;;;48.60;29.30;;;;;;;;;;10016677;28;20137;-67
2022/10/28 21:11:32;;;;;;;49.13;29.23;;;;;;;;;;10016843;28;20138;-67
2022/10/28 21:16:26;;;;;;;52.13;31.90;;;;;;;;;;10009776;28;20054;-67
2022/10/28 21:21:22;;;;;;;52.10;29.63;;;;;;;;;;10023879;28;20107;-67
2022/10/28 21:26:15;;;;;;;51.47;32.60;;;;;;;;;;10020137;28;20055;-67
2022/10/28 21:31:13;;;;;;;47.33;32.00;;;;;;;;;;10021285;28;20053;-67
2022/10/28 21:36:09;;;;;;;50.33;32.72;;;;;;;;;;10021984;28;20050;-66
2022/10/28 21:41:13;;;;;;;54.13;31.92;;;;;;;;;;10021822;28;20051;-66
2022/10/28 21:46:07;;;;;;;49.20;28.92;;;;;;;;;;10022452;28;20074;-66
2022/10/28 21:51:01;;;;;;;54.63;32.42;;;;;;;;;;10023679;28;20053;-66
2022/10/28 21:56:01;;;;;;;51.55;31.88;;;;;;;;;;10030325;28;20076;-66
2022/10/28 22:01:00;;;;;;;53.63;32.72;;;;;;;;;;10032347;28;20132;-66
2022/10/28 22:05:54;;;;;;;56.30;30.98;;;;;;;;;;10031046;28;20049;-67
2022/10/28 22:10:48;;;;;;;45.60;28.65;;;;;;;;;;10032228;28;20054;-66
2022/10/28 22:15:41;;;;;;;42.45;27.20;;;;;;;;;;10031868;28;20050;-66
2022/10/28 22:20:35;;;;;;;47.47;28.48;;;;;;;;;;10030957;28;20057;-66
2022/10/28 22:25:31;;;;;;;53.97;29.30;;;;;;;;;;10030944;28;20449;-67
2022/10/28 22:30:25;;;;;;;41.97;28.30;;;;;;;;;;10030972;28;20463;-66
2022/10/28 22:35:19;;;;;;;44.78;28.25;;;;;;;;;;10029677;28;20057;-66
2022/10/28 22:40:14;;;;;;;52.53;29.95;;;;;;;;;;10031272;28;20046;-67
2022/10/28 22:45:08;;;;;;;49.63;30.33;;;;;;;;;;10031325;28;20049;-67
2022/10/28 22:50:01;;;;;;;50.40;31.90;;;;;;;;;;10030847;28;20058;-67
2022/10/28 22:54:55;;;;;;;40.42;26.83;;;;;;;;;;10027314;28;20060;-67
2022/10/28 22:59:49;;;;;;;35.63;22.33;;;;;;;;;;10030354;28;20058;-67
2022/10/28 23:04:43;;;;;;;36.28;23.02;;;;;;;;;;10030833;28;20062;-67
2022/10/28 23:09:37;;;;;;;35.95;19.25;;;;;;;;;;10030032;28;20069;-67
2022/10/28 23:14:31;;;;;;;31.60;20.08;;;;;;;;;;10029575;28;20049;-67
2022/10/28 23:19:25;;;;;;;31.38;20.63;;;;;;;;;;10029892;28;20501;-67
2022/10/28 23:24:19;;;;;;;37.83;20.75;;;;;;;;;;10029667;28;20058;-67
2022/10/28 23:29:13;;;;;;;36.28;22.20;;;;;;;;;;10029772;28;20054;-67
2022/10/28 23:34:07;;;;;;;33.50;20.95;;;;;;;;;;10029805;28;20054;-67
2022/10/28 23:39:00;;;;;;;35.63;19.45;;;;;;;;;;10029792;28;20477;-67
2022/10/28 23:43:53;;;;;;;29.75;17.90;;;;;;;;;;10028028;28;20089;-66
2022/10/28 23:48:47;;;;;;;28.60;17.45;;;;;;;;;;10028582;28;20398;-66
2022/10/28 23:53:40;;;;;;;32.33;19.25;;;;;;;;;;10029061;28;20064;-66
2022/10/28 23:58:34;;;;;;;31.25;18.67;;;;;;;;;;10027944;28;20056;-66
